Time;durP1;ratioP1;P1;durP2;ratioP2;P2;SDS_P1;SDS_P2;PMS_P1;PMS_P2;Temp;Humidity;BMP_temperature;BMP_pressure;BME280_temperature;BME280_humidity;BME280_pressure;Samples;Min_cycle;Max_cycle;Signal;HPM_P1;HPM_P2
2023/06/28 00:00:06;;;;;;;;;;;;;;;;;;5097637;28;19924;-56
2023/06/28 00:02:35;;;;;;;;;;;;;;;;;;5097569;28;20002;-56
2023/06/28 00:05:01;;;;;;;;;;;;;;;;;;5097027;28;20207;-56
2023/06/28 00:07:27;;;;;;;;;;;;;;;;;;5097435;28;20069;-56
2023/06/28 00:09:53;;;;;;;;;;;;;;;;;;5097372;28;19920;-56
2023/06/28 00:12:21;;;;;;;;;;;;;;;;;;5096994;28;19942;-57
2023/06/28 00:14:47;;;;;;;;;;;;;;;;;;5097285;28;19924;-55
2023/06/28 00:17:12;;;;;;;;;;;;;;;;;;5097311;28;20290;-55
2023/06/28 00:19:47;;;;;;;;;;;;;;;;;;5096914;28;19969;-56
2023/06/28 00:22:13;;;;;;;;;;;;;;;;;;5097131;28;19940;-55
2023/06/28 00:24:39;;;;;;;;;;;;;;;;;;5096865;28;19932;-57
2023/06/28 00:27:05;;;;;;;;;;;;;;;;;;5078226;28;19928;-57
2023/06/28 00:29:31;;;;;;;;;;;;;;;;;;5076712;28;19971;-56
2023/06/28 00:31:57;;;;;;;;;;;;;;;;;;5094205;28;19924;-53
2023/06/28 00:34:23;;;;;;;;;;;;;;;;;;5096415;28;19930;-56
2023/06/28 00:36:49;;;;;;;;;;;;;;;;;;5078809;28;20031;-57
2023/06/28 00:39:15;;;;;;;;;;;;;;;;;;5097136;28;19924;-56
2023/06/28 00:41:41;;;;;;;;;;;;;;;;;;5096741;28;19943;-57
2023/06/28 00:44:07;;;;;;;;;;;;;;;;;;5096847;28;19928;-56
2023/06/28 00:46:32;;;;;;;;;;;;;;;;;;5096829;28;19927;-55
2023/06/28 00:48:58;;;;;;;;;;;;;;;;;;5096540;28;19920;-55
2023/06/28 00:51:24;;;;;;;;;;;;;;;;;;5078977;28;19945;-57
2023/06/28 00:53:50;;;;;;;;;;;;;;;;;;5096915;28;19990;-56
2023/06/28 00:56:16;;;;;;;;;;;;;;;;;;5096311;28;19927;-56
2023/06/28 00:58:42;;;;;;;;;;;;;;;;;;5097052;28;19924;-55
2023/06/28 01:01:10;;;;;;;;;;;;;;;;;;5097213;28;19955;-56
2023/06/28 01:03:36;;;;;;;;;;;;;;;;;;5096568;28;19924;-55
2023/06/28 01:06:02;;;;;;;;;;;;;;;;;;5097023;28;20323;-53
2023/06/28 01:08:28;;;;;;;;;;;;;;;;;;5094950;28;19951;-53
2023/06/28 01:10:54;;;;;;;;;;;;;;;;;;5093274;28;19964;-54
2023/06/28 01:13:20;;;;;;;;;;;;;;;;;;5093650;28;20003;-55
2023/06/28 01:15:46;;;;;;;;;;;;;;;;;;5093587;28;19943;-53
2023/06/28 01:18:12;;;;;;;;;;;;;;;;;;5092776;28;19923;-53
2023/06/28 01:20:38;;;;;;;;;;;;;;;;;;5093341;28;19939;-55
2023/06/28 01:23:05;;;;;;;;;;;;;;;;;;5093415;28;19924;-56
2023/06/28 01:25:31;;;;;;;;;;;;;;;;;;5087774;28;20648;-56
2023/06/28 01:27:57;;;;;;;;;;;;;;;;;;5072884;28;19925;-54
2023/06/28 01:30:23;;;;;;;;;;;;;;;;;;5073030;28;19940;-53
2023/06/28 01:32:49;;;;;;;;;;;;;;;;;;5072691;28;20009;-56
2023/06/28 01:35:15;;;;;;;;;;;;;;;;;;5072766;28;19983;-55
2023/06/28 01:37:41;;;;;;;;;;;;;;;;;;5081334;28;19943;-57
2023/06/28 01:40:07;;;;;;;;;;;;;;;;;;5092559;28;19924;-53
2023/06/28 01:42:33;;;;;;;;;;;;;;;;;;5093110;28;20077;-55
2023/06/28 01:44:59;;;;;;;;;;;;;;;;;;5092744;28;19927;-56
2023/06/28 01:47:25;;;;;;;;;;;;;;;;;;5092554;28;20354;-56
2023/06/28 01:49:51;;;;;;;;;;;;;;;;;;5090602;28;19924;-56
2023/06/28 01:52:17;;;;;;;;;;;;;;;;;;5072789;28;19990;-56
2023/06/28 01:54:43;;;;;;;;;;;;;;;;;;5072281;28;19920;-56
2023/06/28 01:57:09;;;;;;;;;;;;;;;;;;5072697;28;19947;-54
2023/06/28 01:59:35;;;;;;;;;;;;;;;;;;5072678;28;19931;-55
2023/06/28 02:02:01;;;;;;;;;;;;;;;;;;5072068;28;19929;-57
2023/06/28 02:04:27;;;;;;;;;;;;;;;;;;5072472;28;19929;-56
2023/06/28 02:06:53;;;;;;;;;;;;;;;;;;5072413;28;19921;-55
2023/06/28 02:09:19;;;;;;;;;;;;;;;;;;5071657;28;19925;-57
2023/06/28 02:11:45;;;;;;;;;;;;;;;;;;5072388;28;20014;-55
2023/06/28 02:14:11;;;;;;;;;;;;;;;;;;5072188;28;20010;-57
2023/06/28 02:16:37;;;;;;;;;;;;;;;;;;5071705;28;19982;-57
2023/06/28 02:19:03;;;;;;;;;;;;;;;;;;5071181;28;19928;-57
2023/06/28 02:21:29;;;;;;;;;;;;;;;;;;5072056;28;19924;-54
2023/06/28 02:23:55;;;;;;;;;;;;;;;;;;5071514;28;19928;-56
2023/06/28 02:26:21;;;;;;;;;;;;;;;;;;5083598;28;20279;-57
2023/06/28 02:28:47;;;;;;;;;;;;;;;;;;5091982;28;19920;-53
2023/06/28 02:31:13;;;;;;;;;;;;;;;;;;5091908;28;19989;-56
2023/06/28 02:33:38;;;;;;;;;;;;;;;;;;5091898;28;19924;-54
2023/06/28 02:36:04;;;;;;;;;;;;;;;;;;5091847;28;19974;-57
2023/06/28 02:38:30;;;;;;;;;;;;;;;;;;5092007;28;19971;-55
2023/06/28 02:40:56;;;;;;;;;;;;;;;;;;5091318;28;19942;-56
2023/06/28 02:43:22;;;;;;;;;;;;;;;;;;5091663;28;19982;-56
2023/06/28 02:45:48;;;;;;;;;;;;;;;;;;5092036;28;20336;-55
2023/06/28 02:48:14;;;;;;;;;;;;;;;;;;5073201;28;19920;-56
2023/06/28 02:50:40;;;;;;;;;;;;;;;;;;5091603;28;19924;-56
2023/06/28 02:53:06;;;;;;;;;;;;;;;;;;5091373;28;19924;-55
2023/06/28 02:55:32;;;;;;;;;;;;;;;;;;5090856;28;19969;-56
2023/06/28 02:57:58;;;;;;;;;;;;;;;;;;5091692;28;19999;-56
2023/06/28 03:00:24;;;;;;;;;;;;;;;;;;5091619;28;19935;-55
2023/06/28 03:02:50;;;;;;;;;;;;;;;;;;5091143;28;19920;-55
2023/06/28 03:05:16;;;;;;;;;;;;;;;;;;5091595;28;19978;-56
2023/06/28 03:07:42;;;;;;;;;;;;;;;;;;5091546;28;20017;-54
2023/06/28 03:10:08;;;;;;;;;;;;;;;;;;5091003;28;20529;-55
2023/06/28 03:12:34;;;;;;;;;;;;;;;;;;5091152;28;19942;-54
2023/06/28 03:15:00;;;;;;;;;;;;;;;;;;5091218;28;19920;-56
2023/06/28 03:17:26;;;;;;;;;;;;;;;;;;5090676;28;20022;-55
2023/06/28 03:19:52;;;;;;;;;;;;;;;;;;5091069;28;19932;-57
2023/06/28 03:22:18;;;;;;;;;;;;;;;;;;5091255;28;19975;-54
2023/06/28 03:24:44;;;;;;;;;;;;;;;;;;5090398;28;19924;-53
2023/06/28 03:27:10;;;;;;;;;;;;;;;;;;5072032;28;19936;-57
2023/06/28 03:29:36;;;;;;;;;;;;;;;;;;5070871;28;20348;-55
2023/06/28 03:32:02;;;;;;;;;;;;;;;;;;5087526;28;20609;-54
2023/06/28 03:34:28;;;;;;;;;;;;;;;;;;5073106;28;19920;-53
2023/06/28 03:36:53;;;;;;;;;;;;;;;;;;5090906;28;19927;-54
2023/06/28 03:39:19;;;;;;;;;;;;;;;;;;5090130;28;19928;-54
2023/06/28 03:41:45;;;;;;;;;;;;;;;;;;5091005;28;19924;-56
2023/06/28 03:44:12;;;;;;;;;;;;;;;;;;5090952;28;19928;-56
2023/06/28 03:46:38;;;;;;;;;;;;;;;;;;5090405;28;20024;-56
2023/06/28 03:49:04;;;;;;;;;;;;;;;;;;5090832;28;20327;-56
2023/06/28 03:51:30;;;;;;;;;;;;;;;;;;5091013;28;20645;-56
2023/06/28 03:53:56;;;;;;;;;;;;;;;;;;5090517;28;19920;-56
2023/06/28 03:56:22;;;;;;;;;;;;;;;;;;5090755;28;19928;-56
2023/06/28 03:58:50;;;;;;;;;;;;;;;;;;5090832;28;19966;-57
2023/06/28 04:01:16;;;;;;;;;;;;;;;;;;5090089;28;19920;-56
2023/06/28 04:03:43;;;;;;;;;;;;;;;;;;5090776;28;19924;-53
2023/06/28 04:06:08;;;;;;;;;;;;;;;;;;5090795;28;19924;-56
2023/06/28 04:08:34;;;;;;;;;;;;;;;;;;5090261;28;19920;-56
2023/06/28 04:11:00;;;;;;;;;;;;;;;;;;5090718;28;19973;-56
2023/06/28 04:13:26;;;;;;;;;;;;;;;;;;5090589;28;19923;-55
2023/06/28 04:15:52;;;;;;;;;;;;;;;;;;5090028;28;20669;-56
2023/06/28 04:18:18;;;;;;;;;;;;;;;;;;5072340;28;19924;-55
2023/06/28 04:20:44;;;;;;;;;;;;;;;;;;5090570;28;19924;-56
2023/06/28 04:23:10;;;;;;;;;;;;;;;;;;5089779;28;20022;-57
2023/06/28 04:25:37;;;;;;;;;;;;;;;;;;5083971;28;19927;-54
2023/06/28 04:28:03;;;;;;;;;;;;;;;;;;5070192;28;19924;-56
2023/06/28 04:30:31;;;;;;;;;;;;;;;;;;5075160;28;19928;-57
2023/06/28 04:32:57;;;;;;;;;;;;;;;;;;5091029;28;19928;-55
2023/06/28 04:35:23;;;;;;;;;;;;;;;;;;5090516;28;19924;-57
2023/06/28 04:37:50;;;;;;;;;;;;;;;;;;5090310;28;19924;-54
2023/06/28 04:40:16;;;;;;;;;;;;;;;;;;5090833;28;19997;-53
2023/06/28 04:42:42;;;;;;;;;;;;;;;;;;5091986;28;20459;-53
2023/06/28 04:45:09;;;;;;;;;;;;;;;;;;5093998;28;19920;-54
2023/06/28 04:47:36;;;;;;;;;;;;;;;;;;5094348;28;19925;-56
2023/06/28 04:50:03;;;;;;;;;;;;;;;;;;5094305;28;20405;-57
2023/06/28 04:52:28;;;;;;;;;;;;;;;;;;5094011;28;19920;-54
2023/06/28 04:54:54;;;;;;;;;;;;;;;;;;5070428;28;19920;-57
2023/06/28 04:57:21;;;;;;;;;;;;;;;;;;5058781;28;19947;-58
2023/06/28 04:59:47;;;;;;;;;;;;;;;;;;5057772;28;19928;-57
2023/06/28 05:02:14;;;;;;;;;;;;;;;;;;5058614;28;20422;-56
2023/06/28 05:04:40;;;;;;;;;;;;;;;;;;5093567;28;19931;-58
2023/06/28 05:07:06;;;;;;;;;;;;;;;;;;5093390;28;19920;-57
2023/06/28 05:09:32;;;;;;;;;;;;;;;;;;5094026;28;19924;-57
2023/06/28 05:11:58;;;;;;;;;;;;;;;;;;5093936;28;19920;-54
2023/06/28 05:14:25;;;;;;;;;;;;;;;;;;5093205;28;19959;-57
2023/06/28 05:16:51;;;;;;;;;;;;;;;;;;5093490;28;19931;-57
2023/06/28 05:19:17;;;;;;;;;;;;;;;;;;5093771;28;19924;-54
2023/06/28 05:21:43;;;;;;;;;;;;;;;;;;5093170;28;19924;-56
2023/06/28 05:24:08;;;;;;;;;;;;;;;;;;5093775;28;19943;-58
2023/06/28 05:26:34;;;;;;;;;;;;;;;;;;5092984;28;19946;-57
2023/06/28 05:29:00;;;;;;;;;;;;;;;;;;5093089;28;20010;-57
2023/06/28 05:31:26;;;;;;;;;;;;;;;;;;5093450;28;20039;-56
2023/06/28 05:33:52;;;;;;;;;;;;;;;;;;5093393;28;19936;-57
2023/06/28 05:36:20;;;;;;;;;;;;;;;;;;5092281;28;20011;-57
2023/06/28 05:38:46;;;;;;;;;;;;;;;;;;5058202;28;19959;-57
2023/06/28 05:41:12;;;;;;;;;;;;;;;;;;5093254;28;19978;-58
2023/06/28 05:43:38;;;;;;;;;;;;;;;;;;5077394;28;19920;-57
2023/06/28 05:46:04;;;;;;;;;;;;;;;;;;5072678;28;19985;-56
2023/06/28 05:48:30;;;;;;;;;;;;;;;;;;5072814;28;19920;-58
2023/06/28 05:50:56;;;;;;;;;;;;;;;;;;5072817;28;20035;-56
2023/06/28 05:53:22;;;;;;;;;;;;;;;;;;5072152;28;19924;-54
2023/06/28 05:55:48;;;;;;;;;;;;;;;;;;5071960;28;19964;-57
2023/06/28 05:58:14;;;;;;;;;;;;;;;;;;5072908;28;19951;-57
2023/06/28 06:00:40;;;;;;;;;;;;;;;;;;5072139;28;19951;-57
2023/06/28 06:03:06;;;;;;;;;;;;;;;;;;5072845;28;19920;-57
2023/06/28 06:05:32;;;;;;;;;;;;;;;;;;5072336;28;19929;-57
2023/06/28 06:07:58;;;;;;;;;;;;;;;;;;5072274;28;19985;-57
2023/06/28 06:10:24;;;;;;;;;;;;;;;;;;5072486;28;19920;-57
2023/06/28 06:12:50;;;;;;;;;;;;;;;;;;5072353;28;20026;-58
2023/06/28 06:15:16;;;;;;;;;;;;;;;;;;5071679;28;20342;-57
2023/06/28 06:17:42;;;;;;;;;;;;;;;;;;5072140;28;19975;-56
2023/06/28 06:20:08;;;;;;;;;;;;;;;;;;5072386;28;19929;-54
2023/06/28 06:22:34;;;;;;;;;;;;;;;;;;5071966;28;19924;-58
2023/06/28 06:25:00;;;;;;;;;;;;;;;;;;5072641;28;19975;-57
2023/06/28 06:27:26;;;;;;;;;;;;;;;;;;5092090;28;19928;-57
2023/06/28 06:29:52;;;;;;;;;;;;;;;;;;5091926;28;19931;-57
2023/06/28 06:32:18;;;;;;;;;;;;;;;;;;5092450;28;19920;-55
2023/06/28 06:34:44;;;;;;;;;;;;;;;;;;5092031;28;19921;-56
2023/06/28 06:37:12;;;;;;;;;;;;;;;;;;5091688;28;19924;-54
2023/06/28 06:39:38;;;;;;;;;;;;;;;;;;5091580;28;20481;-54
2023/06/28 06:42:04;;;;;;;;;;;;;;;;;;5092220;28;19920;-56
2023/06/28 06:44:30;;;;;;;;;;;;;;;;;;5091541;28;19920;-56
2023/06/28 06:46:55;;;;;;;;;;;;;;;;;;5091887;28;19920;-56
2023/06/28 06:49:21;;;;;;;;;;;;;;;;;;5092020;28;19924;-58
2023/06/28 06:51:47;;;;;;;;;;;;;;;;;;5091417;28;19927;-58
2023/06/28 06:54:13;;;;;;;;;;;;;;;;;;5092001;28;20404;-57
2023/06/28 06:56:39;;;;;;;;;;;;;;;;;;5072425;28;19976;-58
2023/06/28 06:59:05;;;;;;;;;;;;;;;;;;5090492;28;19978;-58
2023/06/28 07:01:34;;;;;;;;;;;;;;;;;;5091295;28;20036;-57
2023/06/28 07:04:00;;;;;;;;;;;;;;;;;;5091194;28;19993;-56
2023/06/28 07:06:26;;;;;;;;;;;;;;;;;;5090303;28;19920;-57
2023/06/28 07:08:52;;;;;;;;;;;;;;;;;;5091302;28;20014;-57
2023/06/28 07:11:18;;;;;;;;;;;;;;;;;;5091078;28;19971;-58
2023/06/28 07:13:44;;;;;;;;;;;;;;;;;;5072573;28;19947;-57
2023/06/28 07:16:10;;;;;;;;;;;;;;;;;;5090877;28;19920;-57
2023/06/28 07:18:36;;;;;;;;;;;;;;;;;;5090906;28;19977;-58
2023/06/28 07:21:02;;;;;;;;;;;;;;;;;;5090896;28;19928;-57
2023/06/28 07:23:28;;;;;;;;;;;;;;;;;;5090988;28;20256;-57
2023/06/28 07:25:54;;;;;;;;;;;;;;;;;;5090751;28;19931;-57
2023/06/28 07:28:20;;;;;;;;;;;;;;;;;;5090562;28;19924;-55
2023/06/28 07:30:47;;;;;;;;;;;;;;;;;;5090554;28;20375;-57
2023/06/28 07:33:13;;;;;;;;;;;;;;;;;;5090658;28;19935;-57
2023/06/28 07:35:39;;;;;;;;;;;;;;;;;;5089986;28;19920;-57
2023/06/28 07:38:04;;;;;;;;;;;;;;;;;;5090683;28;19920;-57
2023/06/28 07:40:32;;;;;;;;;;;;;;;;;;5072556;28;19975;-56
2023/06/28 07:42:58;;;;;;;;;;;;;;;;;;5090137;28;20617;-56
2023/06/28 07:45:26;;;;;;;;;;;;;;;;;;5090071;28;19949;-57
2023/06/28 07:47:52;;;;;;;;;;;;;;;;;;5090726;28;20312;-55
2023/06/28 07:50:20;;;;;;;;;;;;;;;;;;5089972;28;19970;-57
2023/06/28 07:52:46;;;;;;;;;;;;;;;;;;5090712;28;20321;-57
2023/06/28 07:55:12;;;;;;;;;;;;;;;;;;5089978;28;19924;-57
2023/06/28 07:57:38;;;;;;;;;;;;;;;;;;5076261;28;19924;-58
2023/06/28 08:00:05;;;;;;;;;;;;;;;;;;5089909;28;19928;-56
2023/06/28 08:02:31;;;;;;;;;;;;;;;;;;5089132;28;19924;-58
2023/06/28 08:04:58;;;;;;;;;;;;;;;;;;5089339;28;19943;-56
2023/06/28 08:07:24;;;;;;;;;;;;;;;;;;5089864;28;19927;-58
2023/06/28 08:09:50;;;;;;;;;;;;;;;;;;5088140;28;19924;-57
2023/06/28 08:12:16;;;;;;;;;;;;;;;;;;5089591;28;20023;-58
2023/06/28 08:14:42;;;;;;;;;;;;;;;;;;5089436;28;19935;-56
2023/06/28 08:17:08;;;;;;;;;;;;;;;;;;5090447;28;20298;-58
2023/06/28 08:19:34;;;;;;;;;;;;;;;;;;5093200;28;19928;-58
2023/06/28 08:22:00;;;;;;;;;;;;;;;;;;5076149;28;19920;-58
2023/06/28 08:24:26;;;;;;;;;;;;;;;;;;5093622;28;19943;-59
2023/06/28 08:26:52;;;;;;;;;;;;;;;;;;5092242;28;19979;-58
2023/06/28 08:29:18;;;;;;;;;;;;;;;;;;5093672;28;19924;-58
2023/06/28 08:31:43;;;;;;;;;;;;;;;;;;5093392;28;19923;-57
2023/06/28 08:34:09;;;;;;;;;;;;;;;;;;5093549;28;19943;-58
2023/06/28 08:36:35;;;;;;;;;;;;;;;;;;5093065;28;19980;-58
2023/06/28 08:39:01;;;;;;;;;;;;;;;;;;5093168;28;20081;-56
2023/06/28 08:41:27;;;;;;;;;;;;;;;;;;5093097;28;19985;-58
2023/06/28 08:43:53;;;;;;;;;;;;;;;;;;5092807;28;19930;-58
2023/06/28 08:46:19;;;;;;;;;;;;;;;;;;5093581;28;20016;-59
2023/06/28 08:48:48;;;;;;;;;;;;;;;;;;5092702;28;19920;-58
2023/06/28 08:51:15;;;;;;;;;;;;;;;;;;5092596;28;20006;-59
2023/06/28 08:53:44;;;;;;;;;;;;;;;;;;5093280;28;19970;-58
2023/06/28 08:56:09;;;;;;;;;;;;;;;;;;5092104;28;19946;-58
2023/06/28 08:58:35;;;;;;;;;;;;;;;;;;5092510;28;19924;-58
2023/06/28 09:01:01;;;;;;;;;;;;;;;;;;5088003;28;20011;-58
2023/06/28 09:03:27;;;;;;;;;;;;;;;;;;5092605;28;19934;-58
2023/06/28 09:05:53;;;;;;;;;;;;;;;;;;5092933;28;20041;-59
2023/06/28 09:08:19;;;;;;;;;;;;;;;;;;5093042;28;19920;-56
2023/06/28 09:10:45;;;;;;;;;;;;;;;;;;5092533;28;19923;-59
2023/06/28 09:13:19;;;;;;;;;;;;;;;;;;5092336;28;19930;-59
2023/06/28 09:15:45;;;;;;;;;;;;;;;;;;5089048;28;20360;-59
2023/06/28 09:18:11;;;;;;;;;;;;;;;;;;5087995;28;19924;-59
2023/06/28 09:20:37;;;;;;;;;;;;;;;;;;5092311;28;19955;-59
2023/06/28 09:23:04;;;;;;;;;;;;;;;;;;5092805;28;20428;-59
2023/06/28 09:25:31;;;;;;;;;;;;;;;;;;5092121;28;19924;-59
2023/06/28 09:27:57;;;;;;;;;;;;;;;;;;5091756;28;19924;-59
2023/06/28 09:30:23;;;;;;;;;;;;;;;;;;5091250;28;19924;-59
2023/06/28 09:32:52;;;;;;;;;;;;;;;;;;5092274;28;19923;-59
2023/06/28 09:35:18;;;;;;;;;;;;;;;;;;5056551;28;19924;-58
2023/06/28 09:37:44;;;;;;;;;;;;;;;;;;5091826;28;19924;-59
2023/06/28 09:40:10;;;;;;;;;;;;;;;;;;5092647;28;19950;-59
2023/06/28 09:42:37;;;;;;;;;;;;;;;;;;5092198;28;20007;-59
2023/06/28 09:45:03;;;;;;;;;;;;;;;;;;5092077;28;20039;-58
2023/06/28 09:47:29;;;;;;;;;;;;;;;;;;5092162;28;19962;-58
2023/06/28 09:49:55;;;;;;;;;;;;;;;;;;5091702;28;19982;-58
2023/06/28 09:52:21;;;;;;;;;;;;;;;;;;5091797;28;19965;-59
2023/06/28 09:54:47;;;;;;;;;;;;;;;;;;5092200;28;19928;-56
2023/06/28 09:57:12;;;;;;;;;;;;;;;;;;5091063;28;19950;-59
2023/06/28 09:59:38;;;;;;;;;;;;;;;;;;5091804;28;19924;-59
2023/06/28 10:02:04;;;;;;;;;;;;;;;;;;5092254;28;20106;-56
2023/06/28 10:04:30;;;;;;;;;;;;;;;;;;5086504;28;19960;-59
2023/06/28 10:06:56;;;;;;;;;;;;;;;;;;5091461;28;19959;-57
2023/06/28 10:09:22;;;;;;;;;;;;;;;;;;5072051;28;19974;-58
2023/06/28 10:11:48;;;;;;;;;;;;;;;;;;5073170;28;19920;-58
2023/06/28 10:14:16;;;;;;;;;;;;;;;;;;5091080;28;19928;-59
2023/06/28 10:16:42;;;;;;;;;;;;;;;;;;5091116;28;19928;-58
2023/06/28 10:19:08;;;;;;;;;;;;;;;;;;5090863;28;19928;-59
2023/06/28 10:21:34;;;;;;;;;;;;;;;;;;5091470;28;19924;-57
2023/06/28 10:24:00;;;;;;;;;;;;;;;;;;5091204;28;19985;-58
2023/06/28 10:26:27;;;;;;;;;;;;;;;;;;5090629;28;20007;-58
2023/06/28 10:28:54;;;;;;;;;;;;;;;;;;5091230;28;20465;-59
2023/06/28 10:31:20;;;;;;;;;;;;;;;;;;5091175;28;19920;-57
2023/06/28 10:33:45;;;;;;;;;;;;;;;;;;5090617;28;19920;-59
2023/06/28 10:36:11;;;;;;;;;;;;;;;;;;5090948;28;19924;-58
2023/06/28 10:38:37;;;;;;;;;;;;;;;;;;5090982;28;19920;-59
2023/06/28 10:41:03;;;;;;;;;;;;;;;;;;5089888;28;19962;-59
2023/06/28 10:43:29;;;;;;;;;;;;;;;;;;5090906;28;20624;-58
2023/06/28 10:45:55;;;;;;;;;;;;;;;;;;5091576;28;19926;-58
2023/06/28 10:48:21;;;;;;;;;;;;;;;;;;5090100;28;19988;-58
2023/06/28 10:50:47;;;;;;;;;;;;;;;;;;5091135;28;19924;-59
2023/06/28 10:53:13;;;;;;;;;;;;;;;;;;5090622;28;19960;-57
2023/06/28 10:55:39;;;;;;;;;;;;;;;;;;5090211;28;19966;-57
2023/06/28 10:58:05;;;;;;;;;;;;;;;;;;5090635;28;19970;-58
2023/06/28 11:00:31;;;;;;;;;;;;;;;;;;5088636;28;19931;-58
2023/06/28 11:02:57;;;;;;;;;;;;;;;;;;5090294;28;19963;-58
2023/06/28 11:05:23;;;;;;;;;;;;;;;;;;5090785;28;19963;-60
2023/06/28 11:07:49;;;;;;;;;;;;;;;;;;5091219;28;19924;-59
2023/06/28 11:10:16;;;;;;;;;;;;;;;;;;5072844;28;19924;-58
2023/06/28 11:12:42;;;;;;;;;;;;;;;;;;5090710;28;19966;-58
2023/06/28 11:15:08;;;;;;;;;;;;;;;;;;5086292;28;20458;-59
2023/06/28 11:17:34;;;;;;;;;;;;;;;;;;5090476;28;19920;-59
2023/06/28 11:20:00;;;;;;;;;;;;;;;;;;5091081;28;19935;-58
2023/06/28 11:22:26;;;;;;;;;;;;;;;;;;5091004;28;19920;-56
2023/06/28 11:24:52;;;;;;;;;;;;;;;;;;5090463;28;19923;-58
2023/06/28 11:27:18;;;;;;;;;;;;;;;;;;5072317;28;19928;-59
2023/06/28 11:29:44;;;;;;;;;;;;;;;;;;5090985;28;20014;-59
2023/06/28 11:32:12;;;;;;;;;;;;;;;;;;5089233;28;21237;-59
2023/06/28 11:34:37;;;;;;;;;;;;;;;;;;5090769;28;20326;-59
2023/06/28 11:37:03;;;;;;;;;;;;;;;;;;5090066;28;19920;-58
2023/06/28 11:39:29;;;;;;;;;;;;;;;;;;5090034;28;19924;-58
2023/06/28 11:41:55;;;;;;;;;;;;;;;;;;5072323;28;19924;-59
2023/06/28 11:44:21;;;;;;;;;;;;;;;;;;5090582;28;19950;-59
2023/06/28 11:46:47;;;;;;;;;;;;;;;;;;5090309;28;19927;-58
2023/06/28 11:49:13;;;;;;;;;;;;;;;;;;5072263;28;19963;-60
2023/06/28 11:51:39;;;;;;;;;;;;;;;;;;5089639;28;19927;-59
2023/06/28 11:54:05;;;;;;;;;;;;;;;;;;5089772;28;19920;-58
2023/06/28 11:56:31;;;;;;;;;;;;;;;;;;5090295;28;20002;-59
2023/06/28 11:58:57;;;;;;;;;;;;;;;;;;5081239;28;20382;-59
2023/06/28 12:01:24;;;;;;;;;;;;;;;;;;5088270;28;19926;-59
2023/06/28 12:03:50;;;;;;;;;;;;;;;;;;5089702;28;20355;-59
2023/06/28 12:06:17;;;;;;;;;;;;;;;;;;5089478;28;19923;-59
2023/06/28 12:08:42;;;;;;;;;;;;;;;;;;5084425;28;20043;-58
2023/06/28 12:11:08;;;;;;;;;;;;;;;;;;5084624;28;20018;-59
2023/06/28 12:13:34;;;;;;;;;;;;;;;;;;5090113;28;19947;-59
2023/06/28 12:16:00;;;;;;;;;;;;;;;;;;5089301;28;19924;-58
2023/06/28 12:18:27;;;;;;;;;;;;;;;;;;5090289;28;19993;-60
2023/06/28 12:20:53;;;;;;;;;;;;;;;;;;5089028;28;19974;-59
2023/06/28 12:23:19;;;;;;;;;;;;;;;;;;5089511;28;19920;-59
2023/06/28 12:25:45;;;;;;;;;;;;;;;;;;5089902;28;19989;-59
2023/06/28 12:28:11;;;;;;;;;;;;;;;;;;5087787;28;19924;-59
2023/06/28 12:30:36;;;;;;;;;;;;;;;;;;5089201;28;19943;-59
2023/06/28 12:33:02;;;;;;;;;;;;;;;;;;5089350;28;19928;-59
2023/06/28 12:35:29;;;;;;;;;;;;;;;;;;5089380;28;19924;-59
2023/06/28 12:37:55;;;;;;;;;;;;;;;;;;5089915;28;19924;-59
2023/06/28 12:40:24;;;;;;;;;;;;;;;;;;5083578;28;20633;-58
2023/06/28 12:42:49;;;;;;;;;;;;;;;;;;5089334;28;19948;-58
2023/06/28 12:45:15;;;;;;;;;;;;;;;;;;5089273;28;20094;-58
2023/06/28 12:47:42;;;;;;;;;;;;;;;;;;5084299;28;20140;-59
2023/06/28 12:50:08;;;;;;;;;;;;;;;;;;5082855;28;20228;-59
2023/06/28 12:52:34;;;;;;;;;;;;;;;;;;5088261;28;19920;-60
2023/06/28 12:55:00;;;;;;;;;;;;;;;;;;5088139;28;19935;-59
2023/06/28 12:57:30;;;;;;;;;;;;;;;;;;5089215;28;19999;-59
2023/06/28 12:59:56;;;;;;;;;;;;;;;;;;5089029;28;20301;-59
2023/06/28 13:02:22;;;;;;;;;;;;;;;;;;5088378;28;20620;-59
2023/06/28 13:04:48;;;;;;;;;;;;;;;;;;5092004;28;19931;-58
2023/06/28 13:07:14;;;;;;;;;;;;;;;;;;5092797;28;20061;-59
2023/06/28 13:09:40;;;;;;;;;;;;;;;;;;5092262;28;20007;-59
2023/06/28 13:12:06;;;;;;;;;;;;;;;;;;5092068;28;19924;-59
2023/06/28 13:14:32;;;;;;;;;;;;;;;;;;5092647;28;19924;-59
2023/06/28 13:16:58;;;;;;;;;;;;;;;;;;5091825;28;19924;-59
2023/06/28 13:19:24;;;;;;;;;;;;;;;;;;5092436;28;19989;-58
2023/06/28 13:21:55;;;;;;;;;;;;;;;;;;5091780;28;19938;-59
2023/06/28 13:24:22;;;;;;;;;;;;;;;;;;5091358;28;20039;-58
2023/06/28 13:26:48;;;;;;;;;;;;;;;;;;5092132;28;20374;-59
2023/06/28 13:29:17;;;;;;;;;;;;;;;;;;5092153;28;19973;-59
2023/06/28 13:31:43;;;;;;;;;;;;;;;;;;5091025;28;19930;-60
2023/06/28 13:34:09;;;;;;;;;;;;;;;;;;5091981;28;19924;-59
2023/06/28 13:36:35;;;;;;;;;;;;;;;;;;5092107;28;19927;-55
2023/06/28 13:39:01;;;;;;;;;;;;;;;;;;5052129;28;19948;-57
2023/06/28 13:41:27;;;;;;;;;;;;;;;;;;5092335;28;19942;-58
2023/06/28 13:43:53;;;;;;;;;;;;;;;;;;5067819;28;19981;-57
2023/06/28 13:46:19;;;;;;;;;;;;;;;;;;5091498;28;20024;-57
2023/06/28 13:48:45;;;;;;;;;;;;;;;;;;5091730;28;19924;-57
2023/06/28 13:51:11;;;;;;;;;;;;;;;;;;5078392;28;19974;-57
2023/06/28 13:53:37;;;;;;;;;;;;;;;;;;5067135;28;20007;-57
2023/06/28 13:56:03;;;;;;;;;;;;;;;;;;5074184;28;19951;-58
2023/06/28 13:58:29;;;;;;;;;;;;;;;;;;5087296;28;19924;-56
2023/06/28 14:00:56;;;;;;;;;;;;;;;;;;5091255;28;19950;-57
2023/06/28 14:03:22;;;;;;;;;;;;;;;;;;5092200;28;20019;-57
2023/06/28 14:05:48;;;;;;;;;;;;;;;;;;5092100;28;20045;-58
2023/06/28 14:08:14;;;;;;;;;;;;;;;;;;5091021;28;19936;-60
2023/06/28 14:10:40;;;;;;;;;;;;;;;;;;5091620;28;20023;-56
2023/06/28 14:13:06;;;;;;;;;;;;;;;;;;5091454;28;19920;-58
2023/06/28 14:15:32;;;;;;;;;;;;;;;;;;5072168;28;20050;-58
2023/06/28 14:17:58;;;;;;;;;;;;;;;;;;5091769;28;19920;-57
2023/06/28 14:20:24;;;;;;;;;;;;;;;;;;5091195;28;19947;-58
2023/06/28 14:22:50;;;;;;;;;;;;;;;;;;5086328;28;19924;-58
2023/06/28 14:25:16;;;;;;;;;;;;;;;;;;5090873;28;19928;-58
2023/06/28 14:27:42;;;;;;;;;;;;;;;;;;5090989;28;19928;-59
2023/06/28 14:30:08;;;;;;;;;;;;;;;;;;5090876;28;19970;-58
2023/06/28 14:32:34;;;;;;;;;;;;;;;;;;5090858;28;19943;-59
2023/06/28 14:35:00;;;;;;;;;;;;;;;;;;5091834;28;19928;-59
2023/06/28 14:37:26;;;;;;;;;;;;;;;;;;5090635;28;19924;-59
2023/06/28 14:39:52;;;;;;;;;;;;;;;;;;5091261;28;20206;-59
2023/06/28 14:42:18;;;;;;;;;;;;;;;;;;5091219;28;19974;-59
2023/06/28 14:44:44;;;;;;;;;;;;;;;;;;5090976;28;19927;-58
2023/06/28 14:47:10;;;;;;;;;;;;;;;;;;5091663;28;19943;-58
2023/06/28 14:49:36;;;;;;;;;;;;;;;;;;5091117;28;20007;-58
2023/06/28 14:52:02;;;;;;;;;;;;;;;;;;5090539;28;19920;-59
2023/06/28 14:54:28;;;;;;;;;;;;;;;;;;5091103;28;19924;-58
2023/06/28 14:56:54;;;;;;;;;;;;;;;;;;5091218;28;20401;-60
2023/06/28 14:59:20;;;;;;;;;;;;;;;;;;5090618;28;19924;-59
2023/06/28 15:01:46;;;;;;;;;;;;;;;;;;5090459;28;19966;-61
2023/06/28 15:04:12;;;;;;;;;;;;;;;;;;5090800;28;20010;-59
2023/06/28 15:06:38;;;;;;;;;;;;;;;;;;5090403;28;19942;-56
2023/06/28 15:09:06;;;;;;;;;;;;;;;;;;5090476;28;19989;-60
2023/06/28 15:11:31;;;;;;;;;;;;;;;;;;5090826;28;19920;-58
2023/06/28 15:14:01;;;;;;;;;;;;;;;;;;5085366;28;19928;-59
2023/06/28 15:16:27;;;;;;;;;;;;;;;;;;5090885;28;19924;-59
2023/06/28 15:18:53;;;;;;;;;;;;;;;;;;5085785;28;20010;-59
2023/06/28 15:21:19;;;;;;;;;;;;;;;;;;5090221;28;19920;-60
2023/06/28 15:23:45;;;;;;;;;;;;;;;;;;5090823;28;19924;-58
2023/06/28 15:26:11;;;;;;;;;;;;;;;;;;5090049;28;19927;-58
2023/06/28 15:28:37;;;;;;;;;;;;;;;;;;5090066;28;19963;-58
2023/06/28 15:31:03;;;;;;;;;;;;;;;;;;5090611;28;19924;-59
2023/06/28 15:33:29;;;;;;;;;;;;;;;;;;5090783;28;19985;-58
2023/06/28 15:35:55;;;;;;;;;;;;;;;;;;5090406;28;19924;-59
2023/06/28 15:38:21;;;;;;;;;;;;;;;;;;5085175;28;19977;-60
2023/06/28 15:40:50;;;;;;;;;;;;;;;;;;5090967;28;19930;-59
2023/06/28 15:43:16;;;;;;;;;;;;;;;;;;5090237;28;19927;-59
2023/06/28 15:45:42;;;;;;;;;;;;;;;;;;5090707;28;19920;-59
2023/06/28 15:48:09;;;;;;;;;;;;;;;;;;5090851;28;20372;-60
2023/06/28 15:50:35;;;;;;;;;;;;;;;;;;5090275;28;19947;-59
2023/06/28 15:53:01;;;;;;;;;;;;;;;;;;5090731;28;20011;-59
2023/06/28 15:55:27;;;;;;;;;;;;;;;;;;5090594;28;19998;-59
2023/06/28 15:57:53;;;;;;;;;;;;;;;;;;5090367;28;20007;-59
2023/06/28 16:00:19;;;;;;;;;;;;;;;;;;5090722;28;19928;-59
2023/06/28 16:02:48;;;;;;;;;;;;;;;;;;5090830;28;19969;-59
2023/06/28 16:05:14;;;;;;;;;;;;;;;;;;5090491;28;20317;-59
2023/06/28 16:07:40;;;;;;;;;;;;;;;;;;5090447;28;19924;-59
2023/06/28 16:10:07;;;;;;;;;;;;;;;;;;5090726;28;19924;-59
2023/06/28 16:12:33;;;;;;;;;;;;;;;;;;5090700;28;19924;-60
2023/06/28 16:14:59;;;;;;;;;;;;;;;;;;5072072;28;20442;-59
2023/06/28 16:17:25;;;;;;;;;;;;;;;;;;5090389;28;19920;-60
2023/06/28 16:19:51;;;;;;;;;;;;;;;;;;5090574;28;19977;-57
2023/06/28 16:22:17;;;;;;;;;;;;;;;;;;5090173;28;20320;-59
2023/06/28 16:24:43;;;;;;;;;;;;;;;;;;5090448;28;20015;-59
2023/06/28 16:27:09;;;;;;;;;;;;;;;;;;5050123;28;19932;-60
2023/06/28 16:29:35;;;;;;;;;;;;;;;;;;5049704;28;20450;-59
2023/06/28 16:32:01;;;;;;;;;;;;;;;;;;5067289;28;19925;-60
2023/06/28 16:34:29;;;;;;;;;;;;;;;;;;5069781;28;19998;-59
2023/06/28 16:36:55;;;;;;;;;;;;;;;;;;5069561;28;19970;-60